Terminal Aerodrome Forecast
Issued by NWS

Home | Current Version | Previous Version | Text Only | Print | Product List | Glossary On
Versions: 1 2 3 4 5 6 7 8 9 10 11 12 13 14 15 16 17 18 19 20
000
FTAK31 PAJN 302100 AAA
TAFAKT
TAF AMD
PAKT 302131Z 3022/3118 12009KT P6SM VCSH FEW010 OVC050
      TEMPO 3022/3102 -SHRA BKN025 OVC035
     FM310300 13005KT P6SM SCT020 BKN040 OVC060
     FM310900 VRB03KT 5SM BR VCSH SCT015 OVC025
     FM311500 VRB03KT 4SM -SHRA BR SCT008 OVC025
      AMD LTD TO CLD VIS AND WIND 3106/3115=

USA.gov is the U.S. government's official web portal to all federal, state and local government web resources and services.